createdAt,value
2019-01-24T00:00:24.475Z,40.17
2019-01-24T00:02:52.976Z,37.30
2019-01-24T00:05:21.637Z,38.47
2019-01-24T00:07:50.150Z,39.93
2019-01-24T00:10:18.652Z,36.33
2019-01-24T00:12:47.073Z,39.37
2019-01-24T00:15:16.316Z,38.03
2019-01-24T00:17:44.777Z,39.70
2019-01-24T00:20:15.832Z,41.60
2019-01-24T00:22:44.260Z,39.00
2019-01-24T00:25:12.961Z,42.00
2019-01-24T00:27:41.513Z,44.40
2019-01-24T00:30:17.082Z,42.53
2019-01-24T00:32:45.849Z,43.33
2019-01-24T00:35:14.469Z,42.60
2019-01-24T00:37:42.983Z,40.87
2019-01-24T00:40:17.203Z,41.20
2019-01-24T00:42:45.628Z,36.53
2019-01-24T00:45:14.621Z,42.87
2019-01-24T00:47:43.194Z,40.27
2019-01-24T00:50:13.667Z,40.53
2019-01-24T00:52:42.240Z,41.83
2019-01-24T00:55:13.697Z,40.20
2019-01-24T00:57:42.540Z,38.60
2019-01-24T01:00:19.520Z,41.23
2019-01-24T01:02:48.357Z,43.80
2019-01-24T01:05:17.148Z,41.30
2019-01-24T01:07:45.727Z,43.77
2019-01-24T01:10:16.100Z,41.70
2019-01-24T01:12:44.865Z,40.00
2019-01-24T01:15:18.484Z,41.80
2019-01-24T01:17:47.135Z,39.27
2019-01-24T01:20:20.977Z,39.17
2019-01-24T01:22:49.944Z,40.40
2019-01-24T01:25:18.617Z,38.93
2019-01-24T01:27:47.173Z,40.60
2019-01-24T01:30:20.917Z,41.37
2019-01-24T01:32:49.724Z,42.93
2019-01-24T01:35:18.522Z,41.50
2019-01-24T01:37:47.593Z,43.53
2019-01-24T01:40:18.652Z,38.90
2019-01-24T01:42:47.744Z,41.73
2019-01-24T01:45:18.669Z,39.33
2019-01-24T01:47:47.367Z,41.17
2019-01-24T01:50:23.501Z,40.10
2019-01-24T01:52:52.095Z,40.33
2019-01-24T01:55:20.675Z,39.33
2019-01-24T01:57:49.383Z,42.00
2019-01-24T02:00:23.274Z,40.93
2019-01-24T02:02:53.263Z,41.40
2019-01-24T02:05:21.944Z,40.60
2019-01-24T02:07:50.718Z,36.70
2019-01-24T02:10:24.069Z,40.10
2019-01-24T02:12:52.658Z,42.13
2019-01-24T02:15:21.339Z,39.40
2019-01-24T02:17:50.029Z,38.00
2019-01-24T02:20:21.085Z,39.87
2019-01-24T02:22:49.581Z,38.10
2019-01-24T02:25:18.340Z,39.77
2019-01-24T02:27:46.799Z,39.57
2019-01-24T02:30:26.659Z,39.17
2019-01-24T02:35:27.517Z,38.50
2019-01-24T02:37:56.048Z,40.03
2019-01-24T02:40:24.565Z,41.73
2019-01-24T02:42:52.981Z,39.60
2019-01-24T02:45:23.500Z,37.33
2019-01-24T02:47:52.457Z,38.43
2019-01-24T02:50:22.651Z,37.17
2019-01-24T02:52:51.310Z,40.67
2019-01-24T02:55:20.006Z,36.60
2019-01-24T02:57:48.615Z,38.87
2019-01-24T03:00:20.138Z,39.50
2019-01-24T03:02:48.810Z,41.33
2019-01-24T03:05:19.592Z,38.87
2019-01-24T03:07:48.569Z,35.70
2019-01-24T03:10:17.459Z,43.60
2019-01-24T03:12:46.033Z,36.90
2019-01-24T03:15:16.763Z,42.03
2019-01-24T03:17:45.329Z,38.27
2019-01-24T03:20:15.701Z,40.70
2019-01-24T03:22:44.360Z,44.90
2019-01-24T03:25:15.335Z,40.07
2019-01-24T03:27:43.830Z,39.53
2019-01-24T03:30:17.719Z,41.50
2019-01-24T03:32:46.242Z,38.63
2019-01-24T03:35:17.736Z,41.87
2019-01-24T03:37:46.246Z,38.03
2019-01-24T03:40:15.708Z,39.83
2019-01-24T03:42:44.330Z,40.27
2019-01-24T03:45:15.212Z,40.90
2019-01-24T03:47:43.663Z,37.80
2019-01-24T03:50:14.587Z,41.67
2019-01-24T03:52:43.188Z,39.43
2019-01-24T03:55:13.334Z,37.70
2019-01-24T03:57:41.830Z,39.13
2019-01-24T04:00:16.252Z,41.37
2019-01-24T04:02:44.966Z,39.27
2019-01-24T04:05:13.941Z,37.30
2019-01-24T04:07:43.573Z,39.50
2019-01-24T04:10:17.618Z,37.77
2019-01-24T04:12:46.607Z,41.43
2019-01-24T04:15:17.458Z,41.43
2019-01-24T04:17:45.993Z,36.87
2019-01-24T04:20:14.697Z,39.20
2019-01-24T04:22:43.186Z,36.57
2019-01-24T04:25:11.902Z,37.30
2019-01-24T04:27:40.407Z,36.40
2019-01-24T04:30:11.949Z,39.20
2019-01-24T04:32:40.365Z,41.23
2019-01-24T04:35:10.362Z,36.70
2019-01-24T04:37:40.416Z,37.13
2019-01-24T04:40:14.213Z,41.80
2019-01-24T04:42:42.771Z,39.50
2019-01-24T04:45:13.376Z,36.10
2019-01-24T04:47:41.793Z,37.50
2019-01-24T04:50:18.368Z,40.13
2019-01-24T04:52:47.065Z,39.27
2019-01-24T04:55:17.351Z,38.60
2019-01-24T04:57:46.206Z,38.70
2019-01-24T05:00:26.196Z,39.27
2019-01-24T05:02:54.851Z,39.23
2019-01-24T05:05:27.864Z,38.07
2019-01-24T05:07:53.528Z,39.07
2019-01-24T05:10:22.153Z,41.83
2019-01-24T05:12:53.645Z,40.70
2019-01-24T05:15:22.230Z,38.17
2019-01-24T05:17:50.665Z,39.77
2019-01-24T05:20:19.241Z,37.03
2019-01-24T05:22:47.833Z,40.00
2019-01-24T05:25:17.205Z,38.87
2019-01-24T05:27:45.643Z,41.10
2019-01-24T05:30:22.500Z,39.80
2019-01-24T05:32:50.924Z,38.43
2019-01-24T05:35:19.418Z,39.60
2019-01-24T05:37:48.039Z,40.27
2019-01-24T05:40:16.459Z,38.23
2019-01-24T05:42:45.095Z,40.40
2019-01-24T05:45:14.656Z,44.10
2019-01-24T05:47:43.116Z,40.10
2019-01-24T05:50:13.046Z,44.33
2019-01-24T05:52:41.552Z,42.67
2019-01-24T05:55:11.828Z,38.83
2019-01-24T05:57:40.346Z,37.63
2019-01-24T06:00:18.553Z,39.80
2019-01-24T06:02:47.797Z,40.27
2019-01-24T06:05:16.454Z,40.27
2019-01-24T06:07:44.908Z,38.10
2019-01-24T06:10:17.692Z,40.47
2019-01-24T06:12:46.144Z,38.37
2019-01-24T06:15:16.739Z,38.40
2019-01-24T06:17:45.408Z,37.00
2019-01-24T06:20:14.483Z,38.20
2019-01-24T06:22:43.067Z,38.60
2019-01-24T06:25:15.634Z,38.60
2019-01-24T06:27:44.305Z,41.57
2019-01-24T06:30:23.161Z,39.97
2019-01-24T06:32:51.671Z,41.53
2019-01-24T06:35:20.184Z,39.67
2019-01-24T06:37:48.712Z,40.47
2019-01-24T06:40:17.203Z,42.43
2019-01-24T06:42:45.629Z,39.33
2019-01-24T06:45:16.527Z,41.43
2019-01-24T06:47:45.196Z,42.60
2019-01-24T06:50:15.877Z,41.20
2019-01-24T06:52:44.379Z,41.17
2019-01-24T06:55:16.026Z,41.13
2019-01-24T06:57:44.525Z,40.50
2019-01-24T07:00:15.616Z,39.97
2019-01-24T07:02:44.040Z,40.77
2019-01-24T07:05:12.928Z,41.80
2019-01-24T07:07:41.374Z,38.93
2019-01-24T07:10:19.031Z,40.60
2019-01-24T07:12:47.537Z,35.90
2019-01-24T07:15:18.777Z,36.73
2019-01-24T07:17:47.213Z,38.87
2019-01-24T07:20:19.920Z,40.77
2019-01-24T07:22:48.485Z,40.40
2019-01-24T07:25:22.010Z,39.07
2019-01-24T07:27:50.567Z,38.77
2019-01-24T07:30:20.255Z,40.23
2019-01-24T07:32:48.835Z,40.73
2019-01-24T07:35:18.513Z,38.47
2019-01-24T07:37:47.074Z,42.70
2019-01-24T07:40:17.398Z,42.17
2019-01-24T07:42:46.078Z,37.30
2019-01-24T07:45:17.417Z,43.27
2019-01-24T07:47:45.995Z,37.23
2019-01-24T07:50:14.786Z,41.37
2019-01-24T07:52:43.401Z,39.27
2019-01-24T07:55:13.455Z,39.93
2019-01-24T07:57:42.817Z,39.27
2019-01-24T08:00:14.339Z,36.43
2019-01-24T08:02:42.794Z,41.77
2019-01-24T08:05:13.472Z,39.93
2019-01-24T08:07:42.086Z,38.23
2019-01-24T08:10:13.260Z,39.27
2019-01-24T08:12:41.709Z,36.40
2019-01-24T08:15:15.252Z,41.23
2019-01-24T08:17:44.139Z,43.53
2019-01-24T08:20:20.072Z,36.53
2019-01-24T08:22:48.580Z,38.10
2019-01-24T08:25:17.422Z,38.07
2019-01-24T08:27:45.934Z,40.07
2019-01-24T08:30:22.816Z,39.43
2019-01-24T08:32:51.506Z,40.07
2019-01-24T08:35:19.956Z,39.40
2019-01-24T08:37:48.575Z,38.50
2019-01-24T08:40:24.139Z,36.73
2019-01-24T08:42:52.833Z,38.97
2019-01-24T08:45:21.368Z,39.07
2019-01-24T08:47:50.157Z,39.20
2019-01-24T08:50:21.253Z,40.20
2019-01-24T08:52:49.820Z,38.17
2019-01-24T08:55:27.182Z,37.80
2019-01-24T08:57:55.632Z,38.20
2019-01-24T09:00:24.222Z,40.53
2019-01-24T09:02:53.502Z,39.60
2019-01-24T09:05:22.699Z,35.70
2019-01-24T09:07:51.124Z,39.00
2019-01-24T09:10:28.474Z,34.87
2019-01-24T09:12:56.873Z,36.77
2019-01-24T09:15:25.863Z,38.67
2019-01-24T09:17:54.380Z,38.47
2019-01-24T09:20:23.164Z,38.67
2019-01-24T09:22:55.350Z,38.40
2019-01-24T09:25:21.919Z,38.13
2019-01-24T09:27:50.400Z,38.10
2019-01-24T09:30:24.478Z,40.17
2019-01-24T09:32:53.054Z,35.83
2019-01-24T09:35:21.556Z,37.57
2019-01-24T09:37:50.117Z,36.90
2019-01-24T09:40:20.600Z,37.77
2019-01-24T09:42:49.361Z,37.03
2019-01-24T09:45:20.061Z,35.20
2019-01-24T09:47:48.922Z,36.87
2019-01-24T09:50:22.531Z,36.33
2019-01-24T09:52:51.018Z,38.70
2019-01-24T09:55:19.541Z,38.70
2019-01-24T09:57:48.115Z,42.30
2019-01-24T10:00:27.867Z,36.50
2019-01-24T10:02:56.453Z,34.53
2019-01-24T10:05:25.123Z,38.00
2019-01-24T10:07:53.939Z,36.80
2019-01-24T10:10:24.310Z,35.60
2019-01-24T10:12:53.631Z,35.90
2019-01-24T10:15:22.507Z,37.43
2019-01-24T10:17:51.115Z,35.77
2019-01-24T10:20:24.836Z,35.07
2019-01-24T10:22:53.525Z,35.90
2019-01-24T10:25:30.582Z,34.90
2019-01-24T10:27:59.116Z,40.80
2019-01-24T10:30:27.897Z,37.03
2019-01-24T10:32:56.783Z,37.13
2019-01-24T10:35:25.192Z,38.27
2019-01-24T10:37:53.890Z,37.00
2019-01-24T10:40:24.944Z,39.30
2019-01-24T10:42:53.471Z,38.57
2019-01-24T10:45:22.338Z,33.17
2019-01-24T10:47:52.404Z,34.80
2019-01-24T10:50:23.094Z,35.67
2019-01-24T10:52:51.629Z,36.13
2019-01-24T10:55:22.197Z,36.83
2019-01-24T10:57:51.500Z,37.77
2019-01-24T11:00:28.833Z,36.13
2019-01-24T11:02:57.309Z,33.90
2019-01-24T11:05:25.740Z,32.90
2019-01-24T11:07:54.153Z,32.90
2019-01-24T11:10:22.746Z,38.10
2019-01-24T11:12:51.405Z,33.47
2019-01-24T11:15:22.499Z,35.77
2019-01-24T11:17:50.993Z,36.53
2019-01-24T11:20:20.387Z,36.50
2019-01-24T11:22:50.052Z,36.90
2019-01-24T11:25:21.138Z,33.50
2019-01-24T11:27:49.648Z,35.03
2019-01-24T11:30:27.059Z,33.23
2019-01-24T11:32:56.038Z,34.87
2019-01-24T11:35:30.119Z,35.50
2019-01-24T11:37:58.631Z,33.13
2019-01-24T11:40:27.418Z,33.37
2019-01-24T11:42:56.603Z,32.13
2019-01-24T11:45:30.680Z,32.63
2019-01-24T11:47:59.286Z,34.97
2019-01-24T11:50:27.810Z,32.70
2019-01-24T11:52:56.532Z,32.87
2019-01-24T11:55:25.067Z,32.27
2019-01-24T11:57:53.649Z,32.13
2019-01-24T12:00:32.003Z,35.20
2019-01-24T12:03:00.669Z,33.80
2019-01-24T12:05:29.186Z,33.77
2019-01-24T12:07:57.636Z,33.83
2019-01-24T12:10:29.186Z,31.40
2019-01-24T12:12:57.609Z,32.90
2019-01-24T12:15:33.265Z,33.23
2019-01-24T12:18:01.764Z,32.97
2019-01-24T12:20:30.280Z,34.00
2019-01-24T12:22:58.819Z,36.30
2019-01-24T12:25:27.291Z,32.63
2019-01-24T12:27:55.803Z,31.53
2019-01-24T12:30:26.667Z,31.47
2019-01-24T12:32:55.278Z,34.17
2019-01-24T12:35:23.780Z,30.37
2019-01-24T12:37:52.419Z,33.00
2019-01-24T12:40:20.835Z,34.20
2019-01-24T12:42:49.294Z,34.53
2019-01-24T12:45:33.088Z,34.80
2019-01-24T12:48:01.594Z,31.53
2019-01-24T12:50:30.013Z,34.53
2019-01-24T12:52:58.460Z,34.07
2019-01-24T12:55:27.161Z,34.07
2019-01-24T12:57:55.677Z,34.30
2019-01-24T13:00:32.525Z,33.83
2019-01-24T13:03:00.960Z,32.63
2019-01-24T13:05:29.464Z,34.37
2019-01-24T13:07:58.049Z,37.00
2019-01-24T13:10:27.813Z,35.67
2019-01-24T13:12:56.829Z,35.30
2019-01-24T13:15:27.958Z,33.20
2019-01-24T13:17:56.573Z,32.50
2019-01-24T13:20:25.169Z,33.50
2019-01-24T13:22:53.737Z,33.20
2019-01-24T13:25:24.534Z,36.07
2019-01-24T13:27:53.040Z,32.10
2019-01-24T13:30:23.627Z,32.03
2019-01-24T13:32:52.113Z,35.57
2019-01-24T13:35:20.625Z,34.10
2019-01-24T13:37:49.193Z,29.27
2019-01-24T13:40:20.432Z,35.00
2019-01-24T13:42:49.043Z,34.80
2019-01-24T13:45:22.875Z,34.50
2019-01-24T13:47:51.747Z,33.67
2019-01-24T13:50:20.468Z,35.70
2019-01-24T13:52:49.009Z,34.73
2019-01-24T13:55:17.518Z,36.80
2019-01-24T13:57:46.021Z,38.37
2019-01-24T14:00:20.013Z,37.60
2019-01-24T14:02:51.093Z,33.93
2019-01-24T14:05:20.035Z,35.97
2019-01-24T14:07:48.447Z,35.97
2019-01-24T14:10:18.033Z,38.93
2019-01-24T14:12:46.609Z,38.07
2019-01-24T14:15:19.365Z,35.20
2019-01-24T14:17:47.873Z,35.20
2019-01-24T14:20:18.752Z,32.77
2019-01-24T14:22:47.341Z,36.17
2019-01-24T14:25:18.080Z,36.53
2019-01-24T14:27:46.709Z,36.20
2019-01-24T14:30:23.957Z,38.77
2019-01-24T14:32:52.721Z,37.77
2019-01-24T14:35:21.597Z,35.80
2019-01-24T14:37:50.551Z,36.07
2019-01-24T14:40:19.252Z,34.20
2019-01-24T14:42:47.825Z,38.20
2019-01-24T14:45:25.124Z,37.57
2019-01-24T14:47:53.586Z,38.27
2019-01-24T14:50:24.347Z,38.53
2019-01-24T14:52:53.035Z,38.63
2019-01-24T14:55:21.546Z,37.47
2019-01-24T14:57:50.178Z,42.27
2019-01-24T15:00:27.359Z,40.97
2019-01-24T15:02:55.890Z,37.83
2019-01-24T15:05:24.372Z,38.20
2019-01-24T15:07:52.980Z,37.50
2019-01-24T15:10:21.698Z,36.13
2019-01-24T15:12:50.285Z,39.57
2019-01-24T15:15:20.991Z,37.47
2019-01-24T15:17:49.430Z,35.27
2019-01-24T15:20:19.404Z,40.27
2019-01-24T15:22:48.088Z,36.30
2019-01-24T15:25:21.109Z,39.50
2019-01-24T15:27:49.691Z,39.07
2019-01-24T15:30:28.833Z,39.27
2019-01-24T15:32:57.531Z,39.03
2019-01-24T15:35:26.106Z,37.53
2019-01-24T15:37:54.998Z,38.33
2019-01-24T15:40:29.432Z,36.23
2019-01-24T15:42:58.022Z,38.90
2019-01-24T15:45:26.834Z,35.13
2019-01-24T15:47:55.572Z,39.10
2019-01-24T15:50:25.342Z,39.80
2019-01-24T15:52:53.913Z,39.10
2019-01-24T15:55:22.840Z,38.80
2019-01-24T15:57:51.370Z,39.87
2019-01-24T16:00:31.488Z,39.50
2019-01-24T16:03:00.081Z,41.23
2019-01-24T16:05:28.532Z,39.90
2019-01-24T16:08:01.662Z,38.57
2019-01-24T16:10:27.274Z,39.40
2019-01-24T16:12:55.777Z,41.83
2019-01-24T16:15:35.645Z,41.17
2019-01-24T16:18:06.802Z,40.00
2019-01-24T16:20:35.350Z,38.90
2019-01-24T16:23:04.440Z,39.60
2019-01-24T16:25:34.238Z,40.33
2019-01-24T16:28:02.800Z,41.33
2019-01-24T16:30:33.286Z,39.30
2019-01-24T16:33:02.539Z,41.60
2019-01-24T16:35:31.837Z,41.37
2019-01-24T16:38:00.605Z,42.93
2019-01-24T16:40:30.059Z,44.00
2019-01-24T16:42:58.754Z,38.40
2019-01-24T16:45:28.980Z,39.47
2019-01-24T16:47:57.955Z,40.00
2019-01-24T16:50:27.619Z,37.43
2019-01-24T16:52:56.165Z,39.53
2019-01-24T16:55:24.721Z,41.60
2019-01-24T16:57:53.693Z,41.77
2019-01-24T17:00:30.672Z,40.67
2019-01-24T17:02:59.215Z,39.70
2019-01-24T17:05:27.901Z,40.10
2019-01-24T17:07:56.527Z,41.17
2019-01-24T17:10:26.987Z,34.23
2019-01-24T17:12:55.603Z,36.70
2019-01-24T17:15:24.367Z,33.73
2019-01-24T17:17:52.830Z,32.90
2019-01-24T17:20:26.137Z,37.27
2019-01-24T17:22:55.234Z,36.80
2019-01-24T17:25:25.624Z,35.50
2019-01-24T17:27:54.444Z,37.50
2019-01-24T17:30:25.306Z,37.73
2019-01-24T17:32:53.862Z,39.50
2019-01-24T17:35:22.558Z,34.07
2019-01-24T17:37:51.162Z,39.30
2019-01-24T17:40:24.955Z,38.00
2019-01-24T17:42:53.403Z,40.73
2019-01-24T17:45:21.992Z,38.00
2019-01-24T17:47:50.586Z,36.63
2019-01-24T17:50:19.113Z,38.40
2019-01-24T17:52:47.897Z,39.07
2019-01-24T17:55:25.212Z,37.70
2019-01-24T17:57:53.772Z,41.07
2019-01-24T18:00:24.523Z,41.07
2019-01-24T18:02:52.980Z,41.03
2019-01-24T18:05:21.566Z,40.90
2019-01-24T18:07:50.166Z,40.50
2019-01-24T18:10:24.578Z,41.50
2019-01-24T18:12:53.246Z,41.10
2019-01-24T18:15:24.243Z,44.07
2019-01-24T18:17:52.925Z,45.13
2019-01-24T18:20:27.211Z,44.43
2019-01-24T18:22:55.653Z,45.00
2019-01-24T18:25:24.338Z,38.00
2019-01-24T18:27:52.843Z,44.10
2019-01-24T18:30:25.550Z,42.73
2019-01-24T18:32:54.430Z,44.73
2019-01-24T18:35:23.397Z,36.50
2019-01-24T18:37:51.992Z,45.57
2019-01-24T18:40:25.454Z,45.47
2019-01-24T18:42:54.655Z,48.00
2019-01-24T18:45:26.152Z,44.87
2019-01-24T18:47:54.906Z,46.20
2019-01-24T18:50:23.581Z,49.57
2019-01-24T18:52:52.577Z,46.97
2019-01-24T18:55:21.030Z,51.07
2019-01-24T18:57:49.770Z,47.30
2019-01-24T19:00:22.337Z,48.53
2019-01-24T19:02:51.545Z,48.00
2019-01-24T19:05:20.111Z,47.27
2019-01-24T19:07:48.904Z,49.60
2019-01-24T19:10:17.470Z,47.73
2019-01-24T19:12:47.606Z,46.53
2019-01-24T19:15:18.513Z,49.47
2019-01-24T19:17:48.101Z,50.90
2019-01-24T19:20:17.147Z,49.70
2019-01-24T19:22:45.769Z,48.77
2019-01-24T19:25:15.813Z,48.53
2019-01-24T19:27:44.528Z,47.50
2019-01-24T19:30:24.921Z,48.50
2019-01-24T19:32:54.120Z,44.53
2019-01-24T19:35:22.661Z,47.67
2019-01-24T19:37:51.351Z,47.53
2019-01-24T19:40:25.253Z,49.30
2019-01-24T19:42:53.823Z,46.30
2019-01-24T19:45:24.478Z,49.70
2019-01-24T19:47:53.286Z,48.47
2019-01-24T19:50:26.877Z,46.43
2019-01-24T19:52:55.711Z,44.47
2019-01-24T19:55:24.467Z,49.70
2019-01-24T19:57:53.682Z,47.10
2019-01-24T20:00:26.884Z,47.40
2019-01-24T20:02:55.869Z,43.30
2019-01-24T20:05:24.759Z,37.37
2019-01-24T20:07:54.434Z,40.90
2019-01-24T20:10:24.968Z,42.50
2019-01-24T20:12:53.552Z,43.07
2019-01-24T20:15:25.382Z,42.13
2019-01-24T20:17:54.291Z,42.40
2019-01-24T20:20:23.961Z,38.60
2019-01-24T20:22:54.234Z,40.90
2019-01-24T20:25:25.559Z,41.73
2019-01-24T20:27:54.168Z,38.70
2019-01-24T20:30:28.218Z,41.50
2019-01-24T20:32:58.307Z,43.40
2019-01-24T20:35:29.806Z,42.10
2019-01-24T20:37:58.326Z,41.03
2019-01-24T20:40:27.107Z,43.63
2019-01-24T20:42:55.754Z,41.07
2019-01-24T20:45:24.203Z,40.00
2019-01-24T20:47:52.943Z,41.63
2019-01-24T20:50:21.483Z,44.47
2019-01-24T20:52:50.009Z,44.17
2019-01-24T20:55:18.446Z,44.30
2019-01-24T20:57:46.946Z,44.40
2019-01-24T21:00:25.977Z,43.67
2019-01-24T21:02:55.491Z,45.33
2019-01-24T21:05:24.767Z,41.37
2019-01-24T21:07:53.775Z,44.63
2019-01-24T21:10:29.791Z,44.13
2019-01-24T21:12:58.454Z,41.83
2019-01-24T21:15:26.983Z,43.63
2019-01-24T21:17:55.732Z,43.57
2019-01-24T21:20:27.060Z,42.43
2019-01-24T21:22:55.590Z,44.10
2019-01-24T21:25:25.434Z,44.10
2019-01-24T21:27:54.196Z,44.73
2019-01-24T21:30:28.076Z,43.67
2019-01-24T21:32:56.663Z,43.53
2019-01-24T21:35:25.292Z,43.67
2019-01-24T21:37:53.834Z,39.90
2019-01-24T21:40:23.749Z,44.37
2019-01-24T21:42:52.325Z,44.10
2019-01-24T21:45:26.543Z,44.97
2019-01-24T21:47:55.240Z,46.37
2019-01-24T21:50:26.014Z,44.20
2019-01-24T21:52:54.543Z,44.43
2019-01-24T21:55:23.097Z,44.07
2019-01-24T21:57:51.729Z,40.70
2019-01-24T22:00:23.068Z,44.40
2019-01-24T22:02:52.077Z,43.13
2019-01-24T22:05:20.875Z,45.57
2019-01-24T22:07:49.392Z,42.97
2019-01-24T22:10:26.218Z,41.80
2019-01-24T22:12:55.041Z,42.60
2019-01-24T22:15:30.861Z,41.40
2019-01-24T22:17:59.941Z,38.87
2019-01-24T22:20:28.744Z,39.63
2019-01-24T22:22:57.407Z,34.10
2019-01-24T22:25:28.251Z,36.57
2019-01-24T22:27:56.823Z,34.87
2019-01-24T22:30:32.589Z,36.00
2019-01-24T22:33:01.093Z,34.77
2019-01-24T22:35:29.849Z,32.30
2019-01-24T22:37:58.278Z,33.40
2019-01-24T22:40:26.724Z,33.50
2019-01-24T22:42:55.158Z,35.20
2019-01-24T22:45:27.265Z,33.80
2019-01-24T22:47:55.758Z,35.87
2019-01-24T22:50:24.374Z,33.43
2019-01-24T22:52:52.865Z,34.23
2019-01-24T22:55:21.417Z,33.03
2019-01-24T22:57:49.914Z,35.20
2019-01-24T23:00:48.538Z,36.53
2019-01-24T23:03:22.834Z,35.00
2019-01-24T23:05:52.408Z,37.20
2019-01-24T23:08:20.914Z,35.20
2019-01-24T23:10:49.396Z,35.63
2019-01-24T23:13:17.991Z,35.57
2019-01-24T23:15:46.497Z,36.53
2019-01-24T23:18:15.018Z,33.30
2019-01-24T23:20:43.491Z,34.93
2019-01-24T23:23:12.029Z,35.83
2019-01-24T23:25:40.453Z,36.40
2019-01-24T23:28:09.035Z,33.37
2019-01-24T23:30:37.537Z,30.13
2019-01-24T23:33:06.043Z,34.90
2019-01-24T23:35:34.545Z,33.20
2019-01-24T23:38:03.132Z,32.70
2019-01-24T23:40:31.553Z,33.67
2019-01-24T23:43:00.095Z,34.60
2019-01-24T23:45:28.764Z,31.87
2019-01-24T23:47:57.552Z,29.97
2019-01-24T23:50:25.973Z,32.00
2019-01-24T23:52:54.423Z,31.30
2019-01-24T23:55:22.864Z,30.37
2019-01-24T23:57:51.282Z,29.47
